Latest Weather Observations for Douglas River

IDD60801

Issued at 7:31 pm CST Sunday 7 February 2016 (issued every 30 minutes, with the page automatically refreshed every 10 minutes)

About weather observations | Map of weather stations | Latest weather observations for NT | Other Formats
Station Details ID: 014901 Name: DOUGLAS RIVER Lat: -13.83 Lon: 131.19 Height: 42.8 m
Data from the previous 72 hours. | See also: Recent months at Douglas River
Date/Time
CST
Temp
°C
App
Temp
°C
Dew
Point
Rel
Hum
%
Delta-T
°C
Wind Press
QNH
hPa
Press
MSL
hPa
Rain
since 9 am
mm
Dir
 
Spd
km/h
Gust
km/h
Spd
kts
Gust
kts
07/07:30pm 28.0 32.3 23.6 77 3.0 NNW 7 17 4 9 1007.3 1007.0 0.0
07/07:00pm 28.4 33.0 24.2 78 2.9 NNW 7 13 4 7 1006.9 1006.6 0.0
07/06:30pm 29.5 33.8 24.2 73 3.7 NW 9 17 5 9 1006.4 1006.1 0.0
07/06:00pm 30.9 36.5 24.8 70 4.3 NW 4 7 2 4 1005.8 1005.5 0.0
07/05:30pm 32.6 38.4 24.0 60 6.0 CALM 0 4 0 2 1005.3 1005.0 0.0
07/05:00pm 34.0 38.1 22.9 52 7.7 ENE 6 9 3 5 1005.1 1004.8 0.0
07/04:30pm 33.0 37.5 23.7 58 6.5 ENE 6 9 3 5 1005.2 1004.9 0.0
07/04:00pm 31.9 34.7 23.6 61 5.8 E 15 22 8 12 1005.4 1005.1 0.0
07/03:30pm 31.9 35.3 22.7 58 6.3 ENE 9 22 5 12 1005.5 1005.2 0.0
07/03:00pm 34.6 38.9 23.6 52 7.7 NW 7 11 4 6 1005.4 1005.1 0.0
07/02:30pm 34.5 39.1 24.8 57 6.9 NNW 9 13 5 7 1005.6 1005.3 0.0
07/02:00pm 33.8 38.7 23.6 55 7.1 N 4 9 2 5 1006.0 1005.7 0.0
07/01:30pm 34.5 40.0 24.6 56 7.0 E 4 9 2 5 1006.6 1006.3 0.0
07/01:00pm 33.8 38.5 24.3 57 6.7 WNW 7 11 4 6 1007.0 1006.7 0.0
07/12:30pm 33.5 38.8 24.4 59 6.4 ENE 4 11 2 6 1007.5 1007.2 0.0
07/12:00pm 32.8 38.2 25.4 65 5.3 SW 7 9 4 5 1008.0 1007.7 0.0
07/11:30am 32.1 37.2 24.1 62 5.6 NW 4 7 2 4 1008.4 1008.1 0.0
07/11:00am 31.6 37.5 25.3 69 4.5 NW 4 7 2 4 1008.5 1008.2 0.0
07/10:30am 30.8 36.4 25.4 73 3.8 WNW 6 13 3 7 1008.8 1008.5 0.0
07/10:00am 30.6 36.4 25.7 75 3.5 W 6 9 3 5 1008.8 1008.5 0.0
07/09:30am 29.6 35.8 25.2 77 3.1 SSW 2 6 1 3 1008.6 1008.3 0.0
07/09:00am 28.7 35.2 25.1 81 2.5 CALM 0 6 0 3 1008.3 1008.0 0.0
07/08:30am 28.1 34.4 24.7 82 2.4 CALM 0 0 0 0 1008.2 1007.9 0.0
07/08:00am 26.0 31.7 23.8 88 1.5 CALM 0 0 0 0 1008.1 1007.8 0.0
07/07:30am 25.1 30.7 23.6 91 1.0 CALM 0 0 0 0 1007.9 1007.6 0.0
07/07:00am 24.2 29.8 23.6 96 0.4 CALM 0 0 0 0 1007.8 1007.5 0.0
07/06:30am 24.1 29.5 23.2 95 0.6 CALM 0 0 0 0 1007.6 1007.3 0.0
07/06:00am 24.1 28.8 23.4 96 0.5 NNE 4 6 2 3 1007.2 1006.9 0.0
07/05:30am 24.4 30.1 23.7 96 0.5 CALM 0 0 0 0 1007.0 1006.7 0.0
07/05:00am 24.6 30.3 23.7 95 0.6 CALM 0 0 0 0 1006.8 1006.5 0.0
07/04:30am 24.6 30.3 23.7 95 0.6 CALM 0 0 0 0 1006.7 1006.4 0.0
07/04:00am 24.7 30.4 23.7 94 0.7 CALM 0 0 0 0 1006.6 1006.3 0.0
07/03:30am 24.8 30.7 24.1 96 0.5 CALM 0 0 0 0 1006.4 1006.1 0.0
07/03:00am 25.1 30.8 23.8 92 0.9 CALM 0 0 0 0 1006.4 1006.1 0.0
07/02:30am 25.3 31.0 23.8 91 1.0 CALM 0 0 0 0 1006.6 1006.3 0.0
07/02:00am 25.6 31.4 23.9 90 1.2 CALM 0 0 0 0 1007.1 1006.8 0.0
07/01:30am 26.1 32.1 24.2 89 1.3 CALM 0 6 0 3 1007.5 1007.2 0.0
07/01:00am 26.5 32.5 24.8 90 1.2 NNW 2 7 1 4 1007.8 1007.5 0.0
07/12:30am 26.8 32.9 25.1 90 1.2 NNW 2 11 1 6 1008.0 1007.7 0.0
07/12:00am 27.0 32.8 25.1 89 1.3 N 4 7 2 4 1008.3 1008.0 0.0
 
Date/Time
CST
Temp
°C
App
Temp
°C
Dew
Point
Rel
Hum
%
Delta-T
°C
Wind Press
QNH
hPa
Press
MSL
hPa
Rain
since 9 am
mm
Dir
 
Spd
km/h
Gust
km/h
Spd
kts
Gust
kts
06/11:30pm 27.0 33.6 25.3 90 1.2 CALM 0 0 0 0 1008.3 1008.0 0.0
06/11:00pm 27.6 33.0 25.2 87 1.7 NW 6 9 3 5 1008.2 1007.9 0.0
06/10:30pm 27.8 33.1 25.2 86 1.8 WNW 7 13 4 7 1007.9 1007.6 0.0
06/10:00pm 27.8 33.6 25.2 86 1.8 NW 4 7 2 4 1007.6 1007.3 0.0
06/09:30pm 28.2 33.8 25.4 85 2.0 NW 6 7 3 4 1007.0 1006.7 0.0
06/09:00pm 28.6 33.9 25.0 81 2.5 WNW 6 9 3 5 1006.6 1006.3 0.0
06/08:30pm 29.2 34.3 24.6 76 3.2 WNW 6 9 3 5 1006.2 1005.9 0.0
06/08:00pm 29.5 35.8 24.8 76 3.3 CALM 0 0 0 0 1005.7 1005.4 0.0
06/07:30pm 30.0 36.8 25.5 77 3.2 CALM 0 0 0 0 1005.2 1004.9 0.0
06/07:00pm 31.2 36.9 23.7 64 5.2 CALM 0 0 0 0 1005.0 1004.7 0.0
06/06:30pm 33.3 38.1 22.2 52 7.6 CALM 0 0 0 0 1004.6 1004.3 0.0
06/06:00pm 33.5 38.7 22.8 53 7.4 CALM 0 0 0 0 1004.4 1004.1 0.0
06/05:30pm 34.1 38.2 22.3 50 8.1 NNW 4 7 2 4 1004.2 1003.9 0.0
06/05:00pm 34.0 38.2 23.2 53 7.5 SSW 6 13 3 7 1004.2 1003.9 0.0
06/04:30pm 33.8 38.5 24.0 56 6.9 W 6 11 3 6 1004.3 1004.0 0.0
06/04:00pm 33.3 37.8 23.6 56 6.8 W 6 11 3 6 1004.5 1004.2 0.0
06/03:30pm 32.2 36.0 23.4 59 6.1 W 9 19 5 10 1004.9 1004.6 0.0
06/03:00pm 32.4 36.8 24.4 62 5.6 NW 9 15 5 8 1005.2 1004.9 0.0
06/02:30pm 32.3 35.8 22.9 57 6.5 WNW 9 15 5 8 1005.6 1005.3 0.0
06/02:00pm 32.4 36.3 23.6 59 6.1 WSW 9 17 5 9 1006.0 1005.7 0.0
06/01:30pm 32.1 36.1 23.8 61 5.8 NW 9 17 5 9 1006.5 1006.2 0.0
06/01:00pm 32.0 36.7 24.9 66 5.0 NW 9 13 5 7 1007.0 1006.7 0.0
06/12:30pm 31.7 35.2 23.6 62 5.6 WNW 11 17 6 9 1007.6 1007.3 0.0
06/12:00pm 31.2 35.7 23.9 65 5.1 NW 7 17 4 9 1007.9 1007.6 0.0
06/11:30am 30.4 34.4 23.8 68 4.6 W 9 17 5 9 1008.3 1008.0 0.0
06/11:00am 29.9 33.3 24.0 70 4.1 WSW 13 22 7 12 1008.6 1008.3 0.0
06/10:30am 29.1 32.4 23.8 73 3.7 W 13 19 7 10 1008.8 1008.5 0.0
06/10:00am 28.3 31.5 23.7 76 3.2 WNW 13 22 7 12 1008.8 1008.5 0.0
06/09:30am 27.8 31.6 24.0 80 2.6 WNW 11 20 6 11 1008.9 1008.6 0.0
06/09:00am 27.5 31.2 23.9 81 2.5 NW 11 22 6 12 1008.9 1008.6 0.0
06/08:30am 26.1 30.9 24.4 90 1.2 NW 7 11 4 6 1008.7 1008.4 0.0
06/08:00am 26.8 31.8 24.5 87 1.6 WNW 6 11 3 6 1008.4 1008.1 0.0
06/07:30am 26.1 30.7 23.8 87 1.6 WNW 6 7 3 4 1008.2 1007.9 0.0
06/07:00am 25.7 30.1 24.4 92 0.9 WSW 9 11 5 6 1008.0 1007.7 0.0
06/06:30am 25.7 30.8 24.7 94 0.7 WSW 6 7 3 4 1007.4 1007.1 0.0
06/06:00am 25.7 32.0 24.8 95 0.6 CALM 0 0 0 0 1007.1 1006.8 0.0
06/05:30am 25.7 32.2 25.0 96 0.5 CALM 0 0 0 0 1006.6 1006.3 0.0
06/05:00am 25.6 30.7 25.0 96 0.4 WSW 7 9 4 5 1006.2 1005.9 0.0
06/04:30am 25.8 32.1 24.8 94 0.7 CALM 0 0 0 0 1006.0 1005.7 0.0
06/04:00am 25.8 30.9 24.7 94 0.8 W 6 7 3 4 1006.1 1005.8 0.0
06/03:30am 25.8 31.9 24.5 92 0.9 CALM 0 0 0 0 1006.5 1006.2 0.0
06/03:00am 26.0 32.5 25.0 94 0.7 CALM 0 0 0 0 1006.6 1006.3 0.0
06/02:30am 26.0 32.5 25.1 95 0.6 CALM 0 0 0 0 1007.0 1006.7 0.0
06/02:00am 25.9 31.6 25.0 95 0.6 SW 4 6 2 3 1007.4 1007.1 0.0
06/01:30am 25.9 32.2 24.8 94 0.8 CALM 0 0 0 0 1007.7 1007.4 0.0
06/01:00am 25.9 32.2 24.8 94 0.8 CALM 0 0 0 0 1008.0 1007.7 0.0
06/12:30am 25.8 31.9 24.4 92 1.0 CALM 0 0 0 0 1008.3 1008.0 0.0
06/12:00am 25.7 31.8 24.5 93 0.8 CALM 0 0 0 0 1008.5 1008.2 0.0
 
Date/Time
CST
Temp
°C
App
Temp
°C
Dew
Point
Rel
Hum
%
Delta-T
°C
Wind Press
QNH
hPa
Press
MSL
hPa
Rain
since 9 am
mm
Dir
 
Spd
km/h
Gust
km/h
Spd
kts
Gust
kts
05/11:30pm 25.5 30.9 24.5 94 0.7 SE 4 7 2 4 1008.6 1008.3 0.0
05/11:00pm 25.7 31.8 24.4 92 0.9 CALM 0 0 0 0 1008.5 1008.2 0.0
05/10:30pm 26.0 31.8 24.0 89 1.4 CALM 0 0 0 0 1008.1 1007.8 0.0
05/10:00pm 26.2 30.7 23.7 86 1.7 WNW 6 9 3 5 1008.2 1007.9 0.0
05/09:30pm 26.4 30.9 23.6 84 1.9 W 6 7 3 4 1008.3 1008.0 0.0
05/09:00pm 26.7 31.5 23.5 82 2.2 NW 4 9 2 5 1008.1 1007.8 0.0
05/08:30pm 27.2 32.0 24.2 84 2.1 NW 6 11 3 6 1007.8 1007.5 0.0
05/08:00pm 27.4 33.4 24.8 86 1.8 NW 2 7 1 4 1007.5 1007.2 0.0
05/07:30pm 27.4 32.9 24.1 82 2.3 NNW 2 6 1 3 1007.2 1006.9 0.0
05/07:00pm 27.7 32.8 23.3 77 3.0 N 2 6 1 3 1006.9 1006.6 0.0
05/06:30pm 28.1 32.0 23.0 74 3.5 W 7 13 4 7 1006.0 1005.7 0.0
05/06:00pm 28.5 32.0 22.8 71 3.9 WNW 9 15 5 8 1005.3 1005.0 0.0
05/05:30pm 29.2 31.1 22.8 68 4.4 W 17 24 9 13 1004.8 1004.5 0.0
05/05:00pm 31.9 34.7 23.6 61 5.8 SSW 15 32 8 17 1004.6 1004.3 0.0
05/04:30pm 34.5 37.7 21.6 47 8.8 S 7 13 4 7 1004.0 1003.7 0.0
05/04:00pm 35.1 38.0 21.1 44 9.5 SSW 7 17 4 9 1004.0 1003.7 0.0
05/03:30pm 34.8 38.4 22.3 48 8.6 S 7 15 4 8 1004.0 1003.7 0.0
05/03:00pm 34.3 38.4 22.2 49 8.3 WSW 4 9 2 5 1004.5 1004.2 0.0
05/02:30pm 33.0 36.9 22.9 55 7.0 S 7 13 4 7 1005.1 1004.8 0.0
05/02:00pm 33.1 36.9 22.8 54 7.1 NNE 7 9 4 5 1005.5 1005.2 0.0
05/01:30pm 32.2 37.0 24.2 62 5.6 NW 6 7 3 4 1006.2 1005.9 0.0
05/01:00pm 32.8 38.1 25.0 63 5.5 NNW 6 9 3 5 1006.7 1006.4 0.0
05/12:30pm 32.3 37.9 25.4 67 4.9 SSW 6 9 3 5 1007.0 1006.7 0.0
05/12:00pm 31.7 37.1 25.4 69 4.5 WSW 7 11 4 6 1007.4 1007.1 0.0
05/11:30am 30.6 36.0 25.5 74 3.6 WNW 7 13 4 7 1007.8 1007.5 0.0
05/11:00am 30.2 36.1 25.4 75 3.4 NW 4 9 2 5 1008.2 1007.9 0.0
05/10:30am 29.6 35.9 25.4 78 3.0 NW 2 6 1 3 1008.7 1008.4 0.0
05/10:00am 28.8 34.6 25.1 80 2.6 WSW 4 7 2 4 1009.0 1008.7 0.0
05/09:30am 28.4 34.7 25.4 84 2.1 SE 2 7 1 4 1009.0 1008.7 0.0
05/09:00am 27.9 33.8 25.3 86 1.8 SE 4 9 2 5 1009.0 1008.7 0.0
05/08:30am 26.8 32.0 24.8 89 1.4 S 6 7 3 4 1009.1 1008.8 0.0
05/08:00am 26.3 31.4 24.6 90 1.2 SE 6 7 3 4 1008.9 1008.6 0.0
05/07:30am 25.5 30.3 24.5 94 0.7 SSE 7 9 4 5 1008.6 1008.3 0.0
05/07:00am 24.5 30.5 24.2 98 0.2 CALM 0 0 0 0 1008.2 1007.9 0.0
05/06:30am 24.5 30.4 24.1 98 0.3 CALM 0 0 0 0 1007.9 1007.6 0.0
05/06:00am 24.5 30.5 24.2 98 0.2 CALM 0 0 0 0 1007.6 1007.3 0.0
05/05:30am 24.5 30.5 24.2 98 0.2 CALM 0 0 0 0 1007.4 1007.1 0.0
05/05:00am 24.6 30.6 24.2 98 0.3 CALM 0 0 0 0 1007.4 1007.1 0.0
05/04:30am 24.6 30.6 24.2 98 0.3 CALM 0 0 0 0 1007.3 1007.0 0.0
05/04:00am 24.5 30.5 24.2 98 0.2 CALM 0 0 0 0 1007.6 1007.3 0.0
05/03:30am 24.5 30.4 24.1 98 0.3 CALM 0 0 0 0 1007.7 1007.4 0.0
05/03:00am 24.5 29.5 23.8 96 0.5 WNW 4 9 2 5 1007.8 1007.5 0.0
05/02:30am 24.7 29.6 24.4 98 0.2 NNW 6 9 3 5 1007.9 1007.6 0.0
05/02:00am 24.9 29.3 24.5 98 0.3 W 9 17 5 9 1008.3 1008.0 0.0
05/01:30am 25.2 30.8 24.8 98 0.3 NW 4 7 2 4 1008.5 1008.2 0.0
05/01:00am 25.5 31.6 25.1 98 0.3 NW 2 9 1 5 1008.8 1008.5 0.0
05/12:30am 25.5 32.1 25.2 98 0.2 CALM 0 0 0 0 1009.3 1009.0 0.0
05/12:00am 25.5 32.1 25.2 98 0.2 CALM 0 0 0 0 1009.4 1009.1 0.0
 
Date/Time
CST
Temp
°C
App
Temp
°C
Dew
Point
Rel
Hum
%
Delta-T
°C
Wind Press
QNH
hPa
Press
MSL
hPa
Rain
since 9 am
mm
Dir
 
Spd
km/h
Gust
km/h
Spd
kts
Gust
kts
04/11:30pm 25.5 32.1 25.2 98 0.2 CALM 0 0 0 0 1009.5 1009.2 0.0
04/11:00pm 25.6 32.2 25.2 98 0.3 CALM 0 0 0 0 1009.6 1009.3 0.0
04/10:30pm 25.6 31.9 25.3 98 0.2 NNW 2 6 1 3 1009.5 1009.2 0.0
04/10:00pm 25.7 32.4 25.4 98 0.2 CALM 0 0 0 0 1009.6 1009.3 0.0
04/09:30pm 25.9 32.7 25.5 98 0.3 CALM 0 0 0 0 1009.4 1009.1 0.0
04/09:00pm 26.1 33.0 25.7 98 0.3 CALM 0 0 0 0 1009.3 1009.0 0.0
04/08:30pm 26.1 32.9 25.5 96 0.4 CALM 0 0 0 0 1009.2 1008.9 0.0
04/08:00pm 26.1 31.9 25.7 98 0.3 SE 6 9 3 5 1008.6 1008.3 0.0

Other Formats:

Comma delimited format used in spreadsheet applications
http://www.bom.gov.au/fwo/IDD60801/IDD60801.94128.axf

JavaScript Object Notation format (JSON) in row-major order
http://www.bom.gov.au/fwo/IDD60801/IDD60801.94128.json